Cosby, Missouri
Current Conditions -  °F | °C
As of 9:53 AM on Friday 31 Oct 2014 (Local Time) from KSTJ Reporting Station
Clear Clear  
Wind Chill: 26°   Ceiling: Unl
Heat Index: 35°   Visibility: 10mi
Dew Point: 18°   Wind: 14mph
Humidity: 50%   Direction: 350°N
Pressure: 30.53"   Gusts: NA
Location:  39.86°N, 94.68°W
Report Text: KSTJ 311453Z 35012KT 10SM CLR 02/M08 A3053 RMK AO2 SLP342 T00171078 51025
Loading
Personal Weather Stations






























Interactive Weather Map
Tropical Storm Tracking
New forecast layout! Learn more

10-Day Weather Forecast

Advertisements
Track Severe Weather on mobile